createdAt,value
2019-03-05T00:01:43.669Z,6.60
2019-03-05T00:04:13.821Z,10.93
2019-03-05T00:06:43.236Z,8.23
2019-03-05T00:09:14.680Z,7.10
2019-03-05T00:11:44.131Z,10.15
2019-03-05T00:14:13.556Z,10.08
2019-03-05T00:16:43.011Z,8.10
2019-03-05T00:19:12.485Z,11.10
2019-03-05T00:21:41.901Z,8.85
2019-03-05T00:24:49.369Z,8.50
2019-03-05T00:27:18.780Z,6.45
2019-03-05T00:29:53.790Z,7.55
2019-03-05T00:32:23.246Z,10.65
2019-03-05T00:35:04.761Z,9.25
2019-03-05T00:37:37.326Z,7.92
2019-03-05T00:40:12.880Z,7.75
2019-03-05T00:43:00.582Z,9.05
2019-03-05T00:45:51.287Z,7.05
2019-03-05T00:48:39.917Z,9.63
2019-03-05T00:51:25.014Z,7.67
2019-03-05T00:54:00.831Z,6.40
2019-03-05T00:56:51.617Z,6.90
2019-03-05T00:59:57.573Z,7.28
2019-03-05T01:02:52.136Z,9.30
2019-03-05T01:05:30.140Z,7.12
2019-03-05T01:07:59.608Z,5.90
2019-03-05T01:10:29.137Z,11.53
2019-03-05T01:12:58.791Z,8.15
2019-03-05T01:15:28.448Z,6.12
2019-03-05T01:17:57.912Z,6.72
2019-03-05T01:20:27.410Z,6.35
2019-03-05T01:22:57.300Z,6.97
2019-03-05T01:25:29.523Z,5.75
2019-03-05T01:27:58.960Z,5.75
2019-03-05T01:30:33.111Z,5.78
2019-03-05T01:33:10.173Z,4.15
2019-03-05T01:35:41.404Z,7.72
2019-03-05T01:38:10.884Z,3.15
2019-03-05T01:40:40.674Z,4.12
2019-03-05T01:43:10.095Z,2.50
2019-03-05T01:45:39.555Z,3.30
2019-03-05T01:48:08.961Z,3.62
2019-03-05T01:50:38.475Z,2.77
2019-03-05T01:53:07.963Z,4.08
2019-03-05T01:55:37.488Z,3.73
2019-03-05T01:58:06.969Z,4.90
2019-03-05T02:00:37.691Z,6.03
2019-03-05T02:03:07.202Z,5.25
2019-03-05T02:05:36.804Z,6.85
2019-03-05T02:08:06.287Z,7.97
2019-03-05T02:10:35.798Z,7.40
2019-03-05T02:13:05.318Z,7.90
2019-03-05T02:15:34.798Z,8.25
2019-03-05T02:18:04.425Z,8.50
2019-03-05T02:20:33.842Z,11.25
2019-03-05T02:23:09.938Z,11.12
2019-03-05T02:25:45.161Z,11.57
2019-03-05T02:28:26.711Z,10.88
2019-03-05T02:31:14.292Z,11.00
2019-03-05T02:33:46.819Z,9.90
2019-03-05T02:36:37.695Z,9.87
2019-03-05T02:39:32.893Z,9.58
2019-03-05T02:42:17.325Z,8.93
2019-03-05T02:44:56.659Z,9.83
2019-03-05T02:47:51.908Z,11.08
2019-03-05T02:50:50.266Z,14.78
2019-03-05T02:53:39.591Z,12.00
2019-03-05T02:56:28.679Z,13.70
2019-03-05T02:58:56.996Z,13.58
2019-03-05T03:01:44.724Z,14.05
2019-03-05T03:04:15.784Z,13.25
2019-03-05T03:06:45.277Z,12.70
2019-03-05T03:09:32.972Z,14.47
2019-03-05T03:12:02.414Z,15.70
2019-03-05T03:14:31.867Z,16.65
2019-03-05T03:17:01.297Z,16.35
2019-03-05T03:19:31.909Z,19.60
2019-03-05T03:22:01.304Z,15.75
2019-03-05T03:24:30.839Z,14.30
2019-03-05T03:27:00.295Z,19.67
2019-03-05T03:29:29.765Z,18.17
2019-03-05T03:31:59.405Z,15.88
2019-03-05T03:34:28.869Z,22.13
2019-03-05T03:36:58.325Z,18.35
2019-03-05T03:39:27.766Z,18.50
2019-03-05T03:41:57.241Z,19.98
2019-03-05T03:44:26.791Z,17.98
2019-03-05T03:46:56.239Z,20.25
2019-03-05T03:49:25.757Z,22.07
2019-03-05T03:51:55.231Z,20.05
2019-03-05T03:54:24.677Z,19.90
2019-03-05T03:56:54.123Z,17.62
2019-03-05T03:59:23.589Z,18.67
2019-03-05T04:01:53.347Z,17.48
2019-03-05T04:04:22.841Z,17.90
2019-03-05T04:06:52.373Z,19.85
2019-03-05T04:09:21.814Z,16.02
2019-03-05T04:11:51.278Z,18.23
2019-03-05T04:14:20.688Z,16.97
2019-03-05T04:16:50.348Z,19.25
2019-03-05T04:19:22.408Z,15.08
2019-03-05T04:21:51.867Z,18.52
2019-03-05T04:24:21.284Z,18.20
2019-03-05T04:26:50.744Z,15.20
2019-03-05T04:29:20.214Z,16.60
2019-03-05T04:31:49.674Z,20.52
2019-03-05T04:34:19.225Z,17.73
2019-03-05T04:36:48.670Z,13.55
2019-03-05T04:39:18.091Z,12.30
2019-03-05T04:41:47.626Z,14.20
2019-03-05T04:44:18.688Z,16.90
2019-03-05T04:46:49.726Z,16.65
2019-03-05T04:49:26.835Z,17.85
2019-03-05T04:51:58.053Z,18.20
2019-03-05T04:54:27.575Z,12.63
2019-03-05T04:56:57.001Z,18.25
2019-03-05T04:59:26.460Z,12.33
2019-03-05T05:01:55.911Z,13.98
2019-03-05T05:04:25.341Z,15.95
2019-03-05T05:06:54.794Z,15.90
2019-03-05T05:09:24.216Z,17.60
2019-03-05T05:11:53.686Z,15.58
2019-03-05T05:14:23.113Z,14.78
2019-03-05T05:16:52.574Z,17.10
2019-03-05T05:19:21.989Z,15.28
2019-03-05T05:21:51.441Z,13.83
2019-03-05T05:24:20.866Z,15.18
2019-03-05T05:26:50.334Z,15.65
2019-03-05T05:29:20.078Z,14.93
2019-03-05T05:31:49.535Z,16.02
2019-03-05T05:34:20.102Z,18.90
2019-03-05T05:36:49.684Z,15.78
2019-03-05T05:39:55.699Z,17.17
2019-03-05T05:42:25.166Z,17.60
2019-03-05T05:44:54.653Z,20.40
2019-03-05T05:47:24.122Z,17.55
2019-03-05T05:49:54.437Z,19.57
2019-03-05T05:52:23.919Z,14.83
2019-03-05T05:54:53.380Z,15.00
2019-03-05T05:57:23.907Z,14.80
2019-03-05T05:59:53.331Z,12.18
2019-03-05T06:02:22.799Z,13.68
2019-03-05T06:04:52.230Z,11.38
2019-03-05T06:07:21.648Z,9.80
2019-03-05T06:09:51.120Z,10.80
2019-03-05T06:12:20.557Z,9.35
2019-03-05T06:14:49.985Z,12.05
2019-03-05T06:17:20.278Z,8.63
2019-03-05T06:19:49.735Z,9.35
2019-03-05T06:22:19.188Z,19.48
2019-03-05T06:24:48.610Z,8.70
2019-03-05T06:27:18.213Z,10.87
2019-03-05T06:29:47.632Z,13.80
2019-03-05T06:32:17.559Z,12.20
2019-03-05T06:34:47.190Z,12.37
2019-03-05T06:37:16.610Z,9.60
2019-03-05T06:39:46.067Z,9.50
2019-03-05T06:42:15.495Z,9.40
2019-03-05T06:44:45.455Z,11.22
2019-03-05T06:47:14.891Z,14.70
2019-03-05T06:49:44.381Z,19.15
2019-03-05T06:52:13.929Z,15.40
2019-03-05T06:54:43.356Z,12.88
2019-03-05T06:57:12.913Z,11.08
2019-03-05T06:59:42.361Z,8.30
2019-03-05T07:02:11.782Z,9.10
2019-03-05T07:04:42.884Z,10.03
2019-03-05T07:07:12.380Z,11.73
2019-03-05T07:09:48.087Z,11.33
2019-03-05T07:12:35.382Z,9.93
2019-03-05T07:15:22.657Z,10.58
2019-03-05T07:18:20.183Z,8.25
2019-03-05T07:20:55.205Z,9.30
2019-03-05T07:23:40.000Z,7.37
2019-03-05T07:26:09.508Z,8.58
2019-03-05T07:28:38.947Z,9.35
2019-03-05T07:31:08.419Z,13.18
2019-03-05T07:33:37.907Z,9.33
2019-03-05T07:36:07.423Z,14.43
2019-03-05T07:38:36.874Z,8.60
2019-03-05T07:41:06.407Z,15.00
2019-03-05T07:43:36.700Z,16.57
2019-03-05T07:46:06.264Z,9.03
2019-03-05T07:48:35.708Z,9.03
2019-03-05T07:51:05.166Z,10.15
2019-03-05T07:53:34.843Z,13.53
2019-03-05T07:56:04.437Z,11.57
2019-03-05T07:58:33.895Z,11.93
2019-03-05T08:01:04.847Z,22.20
2019-03-05T08:03:34.380Z,10.13
2019-03-05T08:06:04.559Z,10.80
2019-03-05T08:09:10.810Z,11.35
2019-03-05T08:11:40.234Z,9.65
2019-03-05T08:14:39.802Z,12.60
2019-03-05T08:17:09.227Z,11.47
2019-03-05T08:19:38.696Z,11.88
2019-03-05T08:22:09.099Z,9.85
2019-03-05T08:24:38.619Z,11.18
2019-03-05T08:27:08.052Z,11.83
2019-03-05T08:29:37.539Z,13.45
2019-03-05T08:32:07.000Z,10.25
2019-03-05T08:34:36.413Z,8.40
2019-03-05T08:37:05.942Z,8.20
2019-03-05T08:39:35.372Z,10.05
2019-03-05T08:42:05.655Z,8.70
2019-03-05T08:44:36.829Z,9.45
2019-03-05T08:47:06.307Z,8.70
2019-03-05T08:49:35.875Z,8.18
2019-03-05T08:52:05.571Z,9.15
2019-03-05T08:54:35.026Z,10.38
2019-03-05T08:57:04.762Z,9.93
2019-03-05T08:59:34.185Z,7.37
2019-03-05T09:02:04.556Z,9.85
2019-03-05T09:04:34.104Z,10.53
2019-03-05T09:07:04.627Z,9.60
2019-03-05T09:09:34.081Z,10.98
2019-03-05T09:12:04.837Z,9.30
2019-03-05T09:14:34.744Z,11.10
2019-03-05T09:17:05.063Z,12.60
2019-03-05T09:19:34.716Z,11.53
2019-03-05T09:22:04.568Z,15.03
2019-03-05T09:24:34.200Z,11.53
2019-03-05T09:27:04.511Z,10.28
2019-03-05T09:29:38.474Z,7.65
2019-03-05T09:32:07.723Z,9.70
2019-03-05T09:34:37.346Z,8.00
2019-03-05T09:37:07.917Z,5.70
2019-03-05T09:39:39.725Z,9.27
2019-03-05T09:42:09.237Z,8.55
2019-03-05T09:44:38.793Z,11.73
2019-03-05T09:47:08.351Z,8.33
2019-03-05T09:49:39.796Z,8.00
2019-03-05T09:52:09.255Z,8.95
2019-03-05T09:54:38.702Z,9.33
2019-03-05T09:57:08.118Z,7.53
2019-03-05T09:59:37.582Z,6.62
2019-03-05T10:02:07.005Z,7.08
2019-03-05T10:04:36.450Z,5.50
2019-03-05T10:07:06.145Z,5.95
2019-03-05T10:09:35.682Z,15.10
2019-03-05T10:12:05.523Z,11.63
2019-03-05T10:14:34.976Z,9.73
2019-03-05T10:17:04.593Z,7.60
2019-03-05T10:19:34.124Z,8.18
2019-03-05T10:22:04.670Z,12.15
2019-03-05T10:24:34.149Z,12.07
2019-03-05T10:27:04.549Z,16.52
2019-03-05T10:29:34.643Z,9.43
2019-03-05T10:32:05.208Z,8.25
2019-03-05T10:34:34.693Z,7.87
2019-03-05T10:37:12.313Z,7.80
2019-03-05T10:39:36.219Z,8.28
2019-03-05T10:42:05.789Z,7.85
2019-03-05T10:44:35.478Z,9.53
2019-03-05T10:47:05.083Z,9.50
2019-03-05T10:49:34.495Z,9.90
2019-03-05T10:52:04.447Z,7.45
2019-03-05T10:54:33.976Z,9.48
2019-03-05T10:57:04.727Z,7.45
2019-03-05T10:59:34.388Z,8.10
2019-03-05T11:02:04.832Z,6.58
2019-03-05T11:04:45.248Z,6.33
2019-03-05T11:07:05.555Z,8.95
2019-03-05T11:09:35.027Z,6.60
2019-03-05T11:12:05.855Z,7.65
2019-03-05T11:14:35.460Z,9.83
2019-03-05T11:17:05.004Z,7.28
2019-03-05T11:19:34.602Z,7.37
2019-03-05T11:22:04.688Z,7.50
2019-03-05T11:24:34.224Z,13.55
2019-03-05T11:27:04.430Z,12.95
2019-03-05T11:29:33.922Z,10.13
2019-03-05T11:32:04.443Z,13.32
2019-03-05T11:34:33.953Z,7.53
2019-03-05T11:37:04.350Z,7.85
2019-03-05T11:39:33.808Z,9.53
2019-03-05T11:42:03.441Z,8.25
2019-03-05T11:44:32.942Z,8.18
2019-03-05T11:47:02.426Z,5.37
2019-03-05T11:49:31.899Z,7.08
2019-03-05T11:52:01.379Z,7.73
2019-03-05T11:54:31.792Z,7.25
2019-03-05T11:57:01.665Z,7.92
2019-03-05T11:59:31.289Z,6.00
2019-03-05T12:02:00.803Z,6.55
2019-03-05T12:04:30.265Z,7.70
2019-03-05T12:06:59.734Z,7.62
2019-03-05T12:09:29.190Z,7.22
2019-03-05T12:11:58.613Z,6.15
2019-03-05T12:14:28.092Z,7.03
2019-03-05T12:16:57.594Z,6.90
2019-03-05T12:19:27.019Z,7.25
2019-03-05T12:21:56.561Z,9.48
2019-03-05T12:24:25.984Z,8.60
2019-03-05T12:26:55.472Z,10.30
2019-03-05T12:29:24.898Z,10.30
2019-03-05T12:31:55.543Z,5.40
2019-03-05T12:34:24.993Z,5.40
2019-03-05T12:36:54.449Z,7.05
2019-03-05T12:39:23.890Z,5.65
2019-03-05T12:41:53.401Z,7.57
2019-03-05T12:44:22.834Z,6.35
2019-03-05T12:46:52.317Z,4.58
2019-03-05T12:49:21.773Z,4.70
2019-03-05T12:51:51.275Z,5.30
2019-03-05T12:54:20.808Z,5.05
2019-03-05T12:56:50.265Z,5.00
2019-03-05T12:59:19.746Z,5.08
2019-03-05T13:01:49.166Z,6.45
2019-03-05T13:04:18.600Z,5.62
2019-03-05T13:06:48.071Z,4.95
2019-03-05T13:09:19.551Z,4.40
2019-03-05T13:11:49.884Z,5.65
2019-03-05T13:14:20.341Z,5.20
2019-03-05T13:16:49.848Z,5.97
2019-03-05T13:19:19.312Z,5.47
2019-03-05T13:21:50.237Z,6.28
2019-03-05T13:24:20.745Z,6.63
2019-03-05T13:26:50.169Z,6.65
2019-03-05T13:29:20.666Z,8.83
2019-03-05T13:31:51.129Z,6.53
2019-03-05T13:34:20.595Z,5.47
2019-03-05T13:36:50.727Z,5.17
2019-03-05T13:39:22.437Z,5.75
2019-03-05T13:41:53.921Z,5.83
2019-03-05T13:44:34.094Z,6.72
2019-03-05T13:47:05.754Z,5.00
2019-03-05T13:49:56.779Z,5.57
2019-03-05T13:52:39.320Z,5.65
2019-03-05T13:55:17.571Z,6.00
2019-03-05T13:57:58.729Z,7.47
2019-03-05T14:00:28.290Z,5.70
2019-03-05T14:03:09.460Z,7.00
2019-03-05T14:05:41.966Z,8.00
2019-03-05T14:08:29.462Z,4.92
2019-03-05T14:10:59.140Z,7.33
2019-03-05T14:13:28.701Z,5.35
2019-03-05T14:15:58.496Z,6.20
2019-03-05T14:18:27.995Z,5.08
2019-03-05T14:20:57.475Z,4.95
2019-03-05T14:23:26.925Z,5.10
2019-03-05T14:25:56.369Z,6.13
2019-03-05T14:28:27.614Z,7.15
2019-03-05T14:30:57.055Z,5.50
2019-03-05T14:33:26.548Z,4.95
2019-03-05T14:35:55.979Z,6.28
2019-03-05T14:38:25.437Z,5.60
2019-03-05T14:40:56.655Z,4.60
2019-03-05T14:43:26.271Z,6.67
2019-03-05T14:45:55.873Z,5.25
2019-03-05T14:48:25.830Z,7.62
2019-03-05T14:50:55.317Z,5.07
2019-03-05T14:53:24.828Z,6.17
2019-03-05T14:55:54.624Z,6.72
2019-03-05T14:58:24.255Z,9.45
2019-03-05T15:00:55.142Z,6.05
2019-03-05T15:03:24.826Z,5.90
2019-03-05T15:05:54.281Z,8.00
2019-03-05T15:08:23.699Z,8.30
2019-03-05T15:10:53.184Z,4.97
2019-03-05T15:13:22.597Z,6.00
2019-03-05T15:15:52.073Z,7.05
2019-03-05T15:18:21.549Z,5.50
2019-03-05T15:20:51.013Z,4.75
2019-03-05T15:23:20.972Z,6.60
2019-03-05T15:25:50.408Z,5.62
2019-03-05T15:28:19.888Z,6.95
2019-03-05T15:30:49.319Z,5.42
2019-03-05T15:33:18.744Z,6.00
2019-03-05T15:35:48.423Z,6.28
2019-03-05T15:38:17.835Z,7.25
2019-03-05T15:40:47.470Z,10.63
2019-03-05T15:43:16.940Z,7.75
2019-03-05T15:45:46.503Z,5.37
2019-03-05T15:48:16.064Z,6.95
2019-03-05T15:51:04.904Z,6.25
2019-03-05T15:53:34.394Z,9.03
2019-03-05T15:56:04.450Z,9.23
2019-03-05T15:58:33.915Z,9.63
2019-03-05T16:01:04.350Z,7.35
2019-03-05T16:03:34.114Z,5.95
2019-03-05T16:09:40.877Z,4.35
2019-03-05T16:18:39.110Z,5.65
2019-03-05T16:21:07.157Z,7.80
2019-03-05T16:23:36.668Z,4.50
2019-03-05T16:26:08.885Z,4.87
2019-03-05T16:28:39.340Z,5.75
2019-03-05T16:31:12.555Z,8.35
2019-03-05T16:33:47.352Z,11.38
2019-03-05T16:36:18.481Z,6.03
2019-03-05T16:38:55.139Z,6.45
2019-03-05T16:41:41.616Z,6.03
2019-03-05T16:44:18.397Z,5.90
2019-03-05T16:46:58.346Z,8.10
2019-03-05T16:49:41.448Z,11.20
2019-03-05T16:52:15.657Z,6.92
2019-03-05T16:55:02.889Z,7.15
2019-03-05T16:57:35.092Z,7.85
2019-03-05T17:00:27.168Z,9.58
2019-03-05T17:02:58.516Z,6.12
2019-03-05T17:05:35.932Z,9.23
2019-03-05T17:08:09.948Z,7.90
2019-03-05T17:10:47.173Z,8.53
2019-03-05T17:13:16.681Z,10.03
2019-03-05T17:15:46.174Z,11.50
2019-03-05T17:18:16.293Z,9.10
2019-03-05T17:20:45.767Z,23.73
2019-03-05T17:23:15.397Z,8.33
2019-03-05T17:25:45.025Z,8.40
2019-03-05T17:28:14.855Z,8.13
2019-03-05T17:30:44.892Z,9.40
2019-03-05T17:33:15.681Z,7.13
2019-03-05T17:35:45.504Z,7.67
2019-03-05T17:38:15.649Z,6.47
2019-03-05T17:40:45.554Z,8.75
2019-03-05T17:43:15.604Z,7.78
2019-03-05T17:45:45.688Z,7.75
2019-03-05T17:48:15.229Z,6.70
2019-03-05T17:50:44.788Z,10.32
2019-03-05T17:53:14.684Z,7.50
2019-03-05T17:55:44.510Z,6.40
2019-03-05T17:58:13.986Z,10.20
2019-03-05T18:00:45.763Z,10.18
2019-03-05T18:03:15.228Z,9.23
2019-03-05T18:05:44.717Z,6.80
2019-03-05T18:08:14.320Z,9.63
2019-03-05T18:10:43.902Z,9.63
2019-03-05T18:13:14.523Z,7.63
2019-03-05T18:15:44.149Z,8.85
2019-03-05T18:18:13.707Z,8.63
2019-03-05T18:20:43.315Z,10.72
2019-03-05T18:23:12.784Z,8.57
2019-03-05T18:25:42.389Z,9.00
2019-03-05T18:28:12.607Z,7.55
2019-03-05T18:30:42.416Z,6.95
2019-03-05T18:33:11.886Z,9.43
2019-03-05T18:35:41.307Z,8.75
2019-03-05T18:38:10.779Z,9.78
2019-03-05T18:40:40.453Z,9.15
2019-03-05T18:43:09.927Z,6.70
2019-03-05T18:45:40.317Z,8.68
2019-03-05T18:48:09.852Z,9.05
2019-03-05T18:50:39.459Z,11.08
2019-03-05T18:53:09.031Z,11.48
2019-03-05T18:55:38.655Z,11.30
2019-03-05T18:58:08.082Z,8.55
2019-03-05T19:00:37.768Z,6.50
2019-03-05T19:03:12.652Z,8.63
2019-03-05T19:05:42.208Z,8.55
2019-03-05T19:08:11.861Z,9.10
2019-03-05T19:10:41.464Z,9.48
2019-03-05T19:13:10.895Z,7.60
2019-03-05T19:15:40.378Z,8.50
2019-03-05T19:18:09.944Z,12.73
2019-03-05T19:20:39.975Z,11.50
2019-03-05T19:23:09.844Z,7.58
2019-03-05T19:25:41.149Z,9.33
2019-03-05T19:28:11.562Z,12.58
2019-03-05T19:30:44.180Z,17.98
2019-03-05T19:33:13.781Z,12.85
2019-03-05T19:35:43.334Z,10.55
2019-03-05T19:38:17.391Z,17.10
2019-03-05T19:40:48.432Z,9.70
2019-03-05T19:43:17.878Z,10.93
2019-03-05T19:45:47.333Z,9.20
2019-03-05T19:48:17.031Z,10.05
2019-03-05T19:50:47.729Z,11.30
2019-03-05T19:53:18.239Z,8.07
2019-03-05T19:55:47.771Z,9.85
2019-03-05T19:58:17.296Z,11.87
2019-03-05T20:01:02.210Z,9.43
2019-03-05T20:03:31.976Z,11.73
2019-03-05T20:06:01.530Z,11.22
2019-03-05T20:08:39.379Z,8.80
2019-03-05T20:11:02.297Z,14.20
2019-03-05T20:13:31.916Z,10.80
2019-03-05T20:16:01.469Z,12.18
2019-03-05T20:18:30.907Z,10.70
2019-03-05T20:21:00.837Z,8.58
2019-03-05T20:23:32.023Z,11.22
2019-03-05T20:26:01.569Z,10.75
2019-03-05T20:28:31.121Z,9.15
2019-03-05T20:31:02.034Z,11.45
2019-03-05T20:33:31.745Z,12.25
2019-03-05T20:36:01.280Z,9.70
2019-03-05T20:38:31.024Z,10.15
2019-03-05T20:41:00.697Z,9.60
2019-03-05T20:43:30.263Z,11.45
2019-03-05T20:46:06.406Z,10.23
2019-03-05T20:48:36.044Z,10.32
2019-03-05T20:51:07.042Z,11.68
2019-03-05T20:53:36.498Z,8.23
2019-03-05T20:56:07.322Z,10.48
2019-03-05T20:58:36.864Z,13.80
2019-03-05T21:01:08.113Z,9.65
2019-03-05T21:03:37.704Z,11.93
2019-03-05T21:06:07.318Z,11.53
2019-03-05T21:08:37.158Z,14.38
2019-03-05T21:11:09.982Z,12.47
2019-03-05T21:13:39.489Z,10.70
2019-03-05T21:16:09.194Z,11.57
2019-03-05T21:18:38.616Z,11.40
2019-03-05T21:21:08.230Z,9.65
2019-03-05T21:23:38.141Z,16.60
2019-03-05T21:26:07.679Z,13.35
2019-03-05T21:28:37.106Z,13.32
2019-03-05T21:31:06.830Z,12.18
2019-03-05T21:33:36.286Z,14.03
2019-03-05T21:36:05.905Z,13.13
2019-03-05T21:38:35.328Z,13.58
2019-03-05T21:41:04.804Z,12.45
2019-03-05T21:43:35.086Z,14.20
2019-03-05T21:46:13.575Z,11.05
2019-03-05T21:48:43.029Z,16.30
2019-03-05T21:51:12.629Z,20.20
2019-03-05T21:53:42.427Z,13.30
2019-03-05T21:56:11.970Z,14.75
2019-03-05T21:58:41.904Z,15.35
2019-03-05T22:01:11.522Z,15.35
2019-03-05T22:03:40.963Z,16.52
2019-03-05T22:06:10.439Z,16.23
2019-03-05T22:08:39.869Z,14.75
2019-03-05T22:11:10.501Z,13.93
2019-03-05T22:13:40.105Z,14.73
2019-03-05T22:16:09.571Z,13.38
2019-03-05T22:18:39.057Z,14.83
2019-03-05T22:21:09.165Z,14.18
2019-03-05T22:23:39.020Z,14.33
2019-03-05T22:26:08.498Z,13.28
2019-03-05T22:28:38.280Z,13.75
2019-03-05T22:31:07.782Z,13.08
2019-03-05T22:33:37.210Z,14.95
2019-03-05T22:36:06.894Z,14.80
2019-03-05T22:38:37.311Z,13.65
2019-03-05T22:41:07.813Z,14.55
2019-03-05T22:43:37.463Z,11.68
2019-03-05T22:46:06.965Z,10.10
2019-03-05T22:48:36.429Z,12.33
2019-03-05T22:51:05.858Z,10.48
2019-03-05T22:53:35.355Z,14.10
2019-03-05T22:56:04.946Z,13.83
2019-03-05T22:58:34.407Z,11.08
2019-03-05T23:01:06.169Z,14.45
2019-03-05T23:03:38.447Z,11.85
2019-03-05T23:06:11.082Z,11.73
2019-03-05T23:08:40.707Z,12.63
2019-03-05T23:11:10.408Z,12.65
2019-03-05T23:13:40.143Z,13.10
2019-03-05T23:16:09.911Z,11.60
2019-03-05T23:18:39.527Z,10.60
2019-03-05T23:21:09.606Z,11.84
2019-03-05T23:23:39.880Z,11.20
2019-03-05T23:26:09.619Z,10.43
2019-03-05T23:28:39.233Z,10.55
2019-03-05T23:31:11.377Z,11.38
2019-03-05T23:33:40.971Z,9.83
2019-03-05T23:36:10.515Z,9.93
2019-03-05T23:38:40.046Z,10.23
2019-03-05T23:41:09.501Z,9.48
2019-03-05T23:43:38.935Z,9.50
2019-03-05T23:46:08.484Z,11.48
2019-03-05T23:48:38.010Z,9.75
2019-03-05T23:51:07.487Z,10.08
2019-03-05T23:53:37.024Z,8.58
2019-03-05T23:56:06.471Z,9.93
2019-03-05T23:58:35.932Z,8.18
